sensor_id;sensor_type;location;lat;lon;timestamp;P1;durP1;ratioP1;P2;durP2;ratioP2
11986;SDS011;6053;51.382;6.768;2023-12-04T00:02:33;6.78;;;6.28;;
11986;SDS011;6053;51.382;6.768;2023-12-04T00:05:12;7.35;;;6.85;;
11986;SDS011;6053;51.382;6.768;2023-12-04T00:07:40;7.07;;;6.57;;
11986;SDS011;6053;51.382;6.768;2023-12-04T00:10:11;6.90;;;6.40;;
11986;SDS011;6053;51.382;6.768;2023-12-04T00:12:46;6.67;;;6.23;;
11986;SDS011;6053;51.382;6.768;2023-12-04T00:15:14;6.30;;;5.90;;
11986;SDS011;6053;51.382;6.768;2023-12-04T00:17:43;5.97;;;5.68;;
11986;SDS011;6053;51.382;6.768;2023-12-04T00:20:23;6.82;;;6.25;;
11986;SDS011;6053;51.382;6.768;2023-12-04T00:22:52;5.13;;;4.82;;
11986;SDS011;6053;51.382;6.768;2023-12-04T00:25:20;6.70;;;6.20;;
11986;SDS011;6053;51.382;6.768;2023-12-04T00:27:55;6.37;;;5.97;;
11986;SDS011;6053;51.382;6.768;2023-12-04T00:30:26;7.78;;;7.07;;
11986;SDS011;6053;51.382;6.768;2023-12-04T00:33:03;6.68;;;6.28;;
11986;SDS011;6053;51.382;6.768;2023-12-04T00:35:34;6.60;;;6.20;;
11986;SDS011;6053;51.382;6.768;2023-12-04T00:38:02;7.07;;;6.57;;
11986;SDS011;6053;51.382;6.768;2023-12-04T00:40:33;6.10;;;5.70;;
11986;SDS011;6053;51.382;6.768;2023-12-04T00:43:07;6.47;;;6.07;;
11986;SDS011;6053;51.382;6.768;2023-12-04T00:45:44;6.68;;;6.20;;
11986;SDS011;6053;51.382;6.768;2023-12-04T00:48:13;6.43;;;5.97;;
11986;SDS011;6053;51.382;6.768;2023-12-04T00:50:45;6.78;;;6.25;;
11986;SDS011;6053;51.382;6.768;2023-12-04T00:53:14;5.75;;;5.35;;
11986;SDS011;6053;51.382;6.768;2023-12-04T00:55:45;6.28;;;5.78;;
11986;SDS011;6053;51.382;6.768;2023-12-04T00:58:16;6.35;;;5.85;;
11986;SDS011;6053;51.382;6.768;2023-12-04T01:00:47;6.03;;;5.63;;
11986;SDS011;6053;51.382;6.768;2023-12-04T01:03:18;5.45;;;5.15;;
11986;SDS011;6053;51.382;6.768;2023-12-04T01:05:50;5.55;;;5.20;;
11986;SDS011;6053;51.382;6.768;2023-12-04T01:08:18;5.10;;;4.80;;
11986;SDS011;6053;51.382;6.768;2023-12-04T01:10:50;6.03;;;5.63;;
11986;SDS011;6053;51.382;6.768;2023-12-04T01:13:21;6.87;;;6.40;;
11986;SDS011;6053;51.382;6.768;2023-12-04T01:15:50;5.60;;;5.20;;
11986;SDS011;6053;51.382;6.768;2023-12-04T01:18:25;5.65;;;5.25;;
11986;SDS011;6053;51.382;6.768;2023-12-04T01:21:06;6.15;;;5.75;;
11986;SDS011;6053;51.382;6.768;2023-12-04T01:23:36;6.13;;;5.72;;
11986;SDS011;6053;51.382;6.768;2023-12-04T01:26:11;5.20;;;4.90;;
11986;SDS011;6053;51.382;6.768;2023-12-04T01:28:43;5.65;;;5.28;;
11986;SDS011;6053;51.382;6.768;2023-12-04T01:31:14;4.05;;;3.85;;
11986;SDS011;6053;51.382;6.768;2023-12-04T01:33:42;6.28;;;5.88;;
11986;SDS011;6053;51.382;6.768;2023-12-04T01:36:18;6.40;;;5.88;;
11986;SDS011;6053;51.382;6.768;2023-12-04T01:38:50;5.90;;;5.50;;
11986;SDS011;6053;51.382;6.768;2023-12-04T01:41:18;5.10;;;4.80;;
11986;SDS011;6053;51.382;6.768;2023-12-04T01:44:05;6.07;;;5.68;;
11986;SDS011;6053;51.382;6.768;2023-12-04T01:46:33;5.95;;;5.55;;
11986;SDS011;6053;51.382;6.768;2023-12-04T01:49:07;5.47;;;5.10;;
11986;SDS011;6053;51.382;6.768;2023-12-04T01:51:37;5.70;;;5.30;;
11986;SDS011;6053;51.382;6.768;2023-12-04T01:54:06;5.50;;;5.10;;
11986;SDS011;6053;51.382;6.768;2023-12-04T01:56:34;5.15;;;4.85;;
11986;SDS011;6053;51.382;6.768;2023-12-04T01:59:04;5.65;;;5.35;;
11986;SDS011;6053;51.382;6.768;2023-12-04T02:01:32;6.07;;;5.63;;
11986;SDS011;6053;51.382;6.768;2023-12-04T02:04:06;4.93;;;4.60;;
11986;SDS011;6053;51.382;6.768;2023-12-04T02:06:44;5.30;;;5.00;;
11986;SDS011;6053;51.382;6.768;2023-12-04T02:09:16;5.00;;;4.70;;
11986;SDS011;6053;51.382;6.768;2023-12-04T02:11:45;5.72;;;5.43;;
11986;SDS011;6053;51.382;6.768;2023-12-04T02:14:24;5.82;;;5.53;;
11986;SDS011;6053;51.382;6.768;2023-12-04T02:16:58;5.72;;;5.32;;
11986;SDS011;6053;51.382;6.768;2023-12-04T02:19:35;5.40;;;5.10;;
11986;SDS011;6053;51.382;6.768;2023-12-04T02:22:05;5.15;;;4.85;;
11986;SDS011;6053;51.382;6.768;2023-12-04T02:24:42;6.05;;;5.63;;
11986;SDS011;6053;51.382;6.768;2023-12-04T02:27:12;5.47;;;5.07;;
11986;SDS011;6053;51.382;6.768;2023-12-04T02:29:57;5.93;;;5.63;;
11986;SDS011;6053;51.382;6.768;2023-12-04T02:32:33;5.50;;;5.20;;
11986;SDS011;6053;51.382;6.768;2023-12-04T02:35:09;5.28;;;4.97;;
11986;SDS011;6053;51.382;6.768;2023-12-04T02:37:46;6.00;;;5.70;;
11986;SDS011;6053;51.382;6.768;2023-12-04T02:40:26;6.00;;;5.60;;
11986;SDS011;6053;51.382;6.768;2023-12-04T02:42:57;5.23;;;4.83;;
11986;SDS011;6053;51.382;6.768;2023-12-04T02:45:29;5.63;;;5.32;;
11986;SDS011;6053;51.382;6.768;2023-12-04T02:48:00;6.05;;;5.68;;
11986;SDS011;6053;51.382;6.768;2023-12-04T02:50:28;6.15;;;5.82;;
11986;SDS011;6053;51.382;6.768;2023-12-04T02:53:09;5.57;;;5.20;;
11986;SDS011;6053;51.382;6.768;2023-12-04T02:55:46;5.90;;;5.60;;
11986;SDS011;6053;51.382;6.768;2023-12-04T02:58:14;4.67;;;4.47;;
11986;SDS011;6053;51.382;6.768;2023-12-04T03:00:46;5.18;;;4.88;;
11986;SDS011;6053;51.382;6.768;2023-12-04T03:03:20;4.18;;;3.97;;
11986;SDS011;6053;51.382;6.768;2023-12-04T03:05:48;4.93;;;4.63;;
11986;SDS011;6053;51.382;6.768;2023-12-04T03:08:20;5.57;;;5.28;;
11986;SDS011;6053;51.382;6.768;2023-12-04T03:10:49;5.65;;;5.32;;
11986;SDS011;6053;51.382;6.768;2023-12-04T03:13:33;6.43;;;6.03;;
11986;SDS011;6053;51.382;6.768;2023-12-04T03:16:01;6.13;;;5.72;;
11986;SDS011;6053;51.382;6.768;2023-12-04T03:18:31;5.85;;;5.55;;
11986;SDS011;6053;51.382;6.768;2023-12-04T03:21:02;4.95;;;4.70;;
11986;SDS011;6053;51.382;6.768;2023-12-04T03:23:31;5.53;;;5.23;;
11986;SDS011;6053;51.382;6.768;2023-12-04T03:26:04;6.07;;;5.78;;
11986;SDS011;6053;51.382;6.768;2023-12-04T03:28:33;5.40;;;5.10;;
11986;SDS011;6053;51.382;6.768;2023-12-04T03:31:21;5.13;;;4.82;;
11986;SDS011;6053;51.382;6.768;2023-12-04T03:33:50;4.40;;;4.20;;
11986;SDS011;6053;51.382;6.768;2023-12-04T03:36:21;5.63;;;5.27;;
11986;SDS011;6053;51.382;6.768;2023-12-04T03:38:49;5.47;;;5.18;;
11986;SDS011;6053;51.382;6.768;2023-12-04T03:41:28;5.60;;;5.30;;
11986;SDS011;6053;51.382;6.768;2023-12-04T03:43:57;5.80;;;5.50;;
11986;SDS011;6053;51.382;6.768;2023-12-04T03:46:28;5.27;;;4.97;;
11986;SDS011;6053;51.382;6.768;2023-12-04T03:48:56;5.53;;;5.22;;
11986;SDS011;6053;51.382;6.768;2023-12-04T03:51:25;5.53;;;5.22;;
11986;SDS011;6053;51.382;6.768;2023-12-04T03:53:53;5.55;;;5.25;;
11986;SDS011;6053;51.382;6.768;2023-12-04T03:56:24;4.88;;;4.63;;
11986;SDS011;6053;51.382;6.768;2023-12-04T03:58:54;4.95;;;4.72;;
11986;SDS011;6053;51.382;6.768;2023-12-04T04:01:25;5.22;;;4.90;;
11986;SDS011;6053;51.382;6.768;2023-12-04T04:03:56;5.38;;;5.07;;
11986;SDS011;6053;51.382;6.768;2023-12-04T04:06:25;5.73;;;5.43;;
11986;SDS011;6053;51.382;6.768;2023-12-04T04:08:53;5.15;;;4.85;;
11986;SDS011;6053;51.382;6.768;2023-12-04T04:11:43;5.68;;;5.28;;
11986;SDS011;6053;51.382;6.768;2023-12-04T04:14:25;5.03;;;4.72;;
11986;SDS011;6053;51.382;6.768;2023-12-04T04:16:53;4.15;;;3.95;;
11986;SDS011;6053;51.382;6.768;2023-12-04T04:19:28;4.70;;;4.50;;
11986;SDS011;6053;51.382;6.768;2023-12-04T04:21:59;5.63;;;5.40;;
11986;SDS011;6053;51.382;6.768;2023-12-04T04:24:42;4.85;;;4.55;;
11986;SDS011;6053;51.382;6.768;2023-12-04T04:27:13;4.70;;;4.50;;
11986;SDS011;6053;51.382;6.768;2023-12-04T04:29:46;4.80;;;4.50;;
11986;SDS011;6053;51.382;6.768;2023-12-04T04:32:15;5.30;;;5.00;;
11986;SDS011;6053;51.382;6.768;2023-12-04T04:34:46;5.25;;;4.85;;
11986;SDS011;6053;51.382;6.768;2023-12-04T04:37:14;6.28;;;5.88;;
11986;SDS011;6053;51.382;6.768;2023-12-04T04:39:43;5.45;;;5.15;;
11986;SDS011;6053;51.382;6.768;2023-12-04T04:42:12;5.07;;;4.83;;
11986;SDS011;6053;51.382;6.768;2023-12-04T04:44:44;5.07;;;4.88;;
11986;SDS011;6053;51.382;6.768;2023-12-04T04:47:14;5.13;;;4.82;;
11986;SDS011;6053;51.382;6.768;2023-12-04T04:49:45;5.25;;;4.95;;
11986;SDS011;6053;51.382;6.768;2023-12-04T04:52:16;5.70;;;5.40;;
11986;SDS011;6053;51.382;6.768;2023-12-04T04:54:49;4.68;;;4.47;;
11986;SDS011;6053;51.382;6.768;2023-12-04T04:57:17;5.18;;;4.88;;
11986;SDS011;6053;51.382;6.768;2023-12-04T04:59:52;5.55;;;5.25;;
11986;SDS011;6053;51.382;6.768;2023-12-04T05:02:32;5.13;;;4.83;;
11986;SDS011;6053;51.382;6.768;2023-12-04T05:05:03;6.15;;;5.78;;
11986;SDS011;6053;51.382;6.768;2023-12-04T05:07:36;5.57;;;5.28;;
11986;SDS011;6053;51.382;6.768;2023-12-04T05:10:08;5.55;;;5.25;;
11986;SDS011;6053;51.382;6.768;2023-12-04T05:12:37;5.67;;;5.37;;
11986;SDS011;6053;51.382;6.768;2023-12-04T05:15:10;4.87;;;4.63;;
11986;SDS011;6053;51.382;6.768;2023-12-04T05:17:38;4.68;;;4.43;;
11986;SDS011;6053;51.382;6.768;2023-12-04T05:20:09;5.88;;;5.47;;
11986;SDS011;6053;51.382;6.768;2023-12-04T05:22:43;4.80;;;4.60;;
11986;SDS011;6053;51.382;6.768;2023-12-04T05:25:14;5.65;;;5.35;;
11986;SDS011;6053;51.382;6.768;2023-12-04T05:27:43;4.90;;;4.60;;
11986;SDS011;6053;51.382;6.768;2023-12-04T05:30:16;4.72;;;4.50;;
11986;SDS011;6053;51.382;6.768;2023-12-04T05:32:45;5.00;;;4.70;;
11986;SDS011;6053;51.382;6.768;2023-12-04T05:35:14;5.18;;;4.88;;
11986;SDS011;6053;51.382;6.768;2023-12-04T05:37:43;5.65;;;5.35;;
11986;SDS011;6053;51.382;6.768;2023-12-04T05:40:12;6.05;;;5.63;;
11986;SDS011;6053;51.382;6.768;2023-12-04T05:42:44;5.18;;;4.88;;
11986;SDS011;6053;51.382;6.768;2023-12-04T05:45:17;4.78;;;4.57;;
11986;SDS011;6053;51.382;6.768;2023-12-04T05:47:50;6.07;;;5.68;;
11986;SDS011;6053;51.382;6.768;2023-12-04T05:50:19;5.72;;;5.32;;
11986;SDS011;6053;51.382;6.768;2023-12-04T05:52:48;5.78;;;5.47;;
11986;SDS011;6053;51.382;6.768;2023-12-04T05:55:17;4.35;;;4.15;;
11986;SDS011;6053;51.382;6.768;2023-12-04T05:57:49;5.50;;;5.20;;
11986;SDS011;6053;51.382;6.768;2023-12-04T06:00:22;5.40;;;5.07;;
11986;SDS011;6053;51.382;6.768;2023-12-04T06:02:54;5.45;;;5.15;;
11986;SDS011;6053;51.382;6.768;2023-12-04T06:05:28;5.88;;;5.57;;
11986;SDS011;6053;51.382;6.768;2023-12-04T06:07:56;6.07;;;5.68;;
11986;SDS011;6053;51.382;6.768;2023-12-04T06:10:24;5.45;;;5.15;;
11986;SDS011;6053;51.382;6.768;2023-12-04T06:12:59;5.28;;;5.05;;
11986;SDS011;6053;51.382;6.768;2023-12-04T06:15:39;5.47;;;5.00;;
11986;SDS011;6053;51.382;6.768;2023-12-04T06:18:14;6.28;;;5.85;;
11986;SDS011;6053;51.382;6.768;2023-12-04T06:20:51;5.40;;;5.13;;
11986;SDS011;6053;51.382;6.768;2023-12-04T06:23:20;6.03;;;5.60;;
11986;SDS011;6053;51.382;6.768;2023-12-04T06:25:50;5.95;;;5.45;;
11986;SDS011;6053;51.382;6.768;2023-12-04T06:28:19;5.70;;;5.40;;
11986;SDS011;6053;51.382;6.768;2023-12-04T06:30:52;4.50;;;4.30;;
11986;SDS011;6053;51.382;6.768;2023-12-04T06:33:21;6.32;;;5.93;;
11986;SDS011;6053;51.382;6.768;2023-12-04T06:35:50;5.85;;;5.43;;
11986;SDS011;6053;51.382;6.768;2023-12-04T06:38:23;5.60;;;5.30;;
11986;SDS011;6053;51.382;6.768;2023-12-04T06:40:53;5.25;;;4.95;;
11986;SDS011;6053;51.382;6.768;2023-12-04T06:43:22;5.40;;;5.00;;
11986;SDS011;6053;51.382;6.768;2023-12-04T06:45:53;5.40;;;5.10;;
11986;SDS011;6053;51.382;6.768;2023-12-04T06:48:25;5.60;;;5.20;;
11986;SDS011;6053;51.382;6.768;2023-12-04T06:50:54;5.63;;;5.32;;
11986;SDS011;6053;51.382;6.768;2023-12-04T06:53:23;6.35;;;5.95;;
11986;SDS011;6053;51.382;6.768;2023-12-04T06:55:57;5.28;;;4.97;;
11986;SDS011;6053;51.382;6.768;2023-12-04T06:58:28;4.47;;;4.27;;
11986;SDS011;6053;51.382;6.768;2023-12-04T07:00:58;5.95;;;5.45;;
11986;SDS011;6053;51.382;6.768;2023-12-04T07:03:27;6.30;;;5.80;;
11986;SDS011;6053;51.382;6.768;2023-12-04T07:05:55;5.53;;;5.20;;
11986;SDS011;6053;51.382;6.768;2023-12-04T07:08:24;5.60;;;5.30;;
11986;SDS011;6053;51.382;6.768;2023-12-04T07:10:52;6.07;;;5.70;;
11986;SDS011;6053;51.382;6.768;2023-12-04T07:13:20;5.05;;;4.68;;
11986;SDS011;6053;51.382;6.768;2023-12-04T07:15:49;5.10;;;4.80;;
11986;SDS011;6053;51.382;6.768;2023-12-04T07:18:19;5.47;;;5.17;;
11986;SDS011;6053;51.382;6.768;2023-12-04T07:20:47;5.82;;;5.53;;
11986;SDS011;6053;51.382;6.768;2023-12-04T07:23:15;5.45;;;5.13;;
11986;SDS011;6053;51.382;6.768;2023-12-04T07:25:44;5.60;;;5.30;;
11986;SDS011;6053;51.382;6.768;2023-12-04T07:28:19;5.72;;;5.43;;
11986;SDS011;6053;51.382;6.768;2023-12-04T07:30:47;5.30;;;5.00;;
11986;SDS011;6053;51.382;6.768;2023-12-04T07:33:15;6.05;;;5.68;;
11986;SDS011;6053;51.382;6.768;2023-12-04T07:35:48;4.20;;;4.03;;
11986;SDS011;6053;51.382;6.768;2023-12-04T07:38:17;5.60;;;5.18;;
11986;SDS011;6053;51.382;6.768;2023-12-04T07:40:50;5.10;;;4.75;;
11986;SDS011;6053;51.382;6.768;2023-12-04T07:43:20;4.60;;;4.40;;
11986;SDS011;6053;51.382;6.768;2023-12-04T07:45:51;5.07;;;4.78;;
11986;SDS011;6053;51.382;6.768;2023-12-04T07:48:21;5.78;;;5.45;;
11986;SDS011;6053;51.382;6.768;2023-12-04T07:50:56;5.13;;;4.82;;
11986;SDS011;6053;51.382;6.768;2023-12-04T07:53:27;4.35;;;4.05;;
11986;SDS011;6053;51.382;6.768;2023-12-04T07:55:56;4.57;;;4.32;;
11986;SDS011;6053;51.382;6.768;2023-12-04T07:58:24;6.10;;;5.70;;
11986;SDS011;6053;51.382;6.768;2023-12-04T08:00:52;5.15;;;4.85;;
11986;SDS011;6053;51.382;6.768;2023-12-04T08:03:25;5.30;;;5.00;;
11986;SDS011;6053;51.382;6.768;2023-12-04T08:05:57;5.67;;;5.27;;
11986;SDS011;6053;51.382;6.768;2023-12-04T08:08:32;4.88;;;4.57;;
11986;SDS011;6053;51.382;6.768;2023-12-04T08:11:00;5.05;;;4.75;;
11986;SDS011;6053;51.382;6.768;2023-12-04T08:13:29;5.47;;;5.18;;
11986;SDS011;6053;51.382;6.768;2023-12-04T08:15:57;4.80;;;4.53;;
11986;SDS011;6053;51.382;6.768;2023-12-04T08:18:28;5.45;;;5.07;;
11986;SDS011;6053;51.382;6.768;2023-12-04T08:20:59;5.13;;;4.82;;
11986;SDS011;6053;51.382;6.768;2023-12-04T08:23:31;5.20;;;4.90;;
11986;SDS011;6053;51.382;6.768;2023-12-04T08:26:00;5.28;;;4.97;;
11986;SDS011;6053;51.382;6.768;2023-12-04T08:28:32;4.97;;;4.68;;
11986;SDS011;6053;51.382;6.768;2023-12-04T08:31:03;5.53;;;5.22;;
11986;SDS011;6053;51.382;6.768;2023-12-04T08:33:35;4.38;;;4.18;;
11986;SDS011;6053;51.382;6.768;2023-12-04T08:36:07;5.30;;;5.00;;
11986;SDS011;6053;51.382;6.768;2023-12-04T08:38:36;5.18;;;4.88;;
11986;SDS011;6053;51.382;6.768;2023-12-04T08:41:05;5.13;;;4.82;;
11986;SDS011;6053;51.382;6.768;2023-12-04T08:43:37;5.10;;;4.67;;
11986;SDS011;6053;51.382;6.768;2023-12-04T08:46:06;4.55;;;4.35;;
11986;SDS011;6053;51.382;6.768;2023-12-04T08:48:43;5.30;;;5.00;;
11986;SDS011;6053;51.382;6.768;2023-12-04T08:51:15;5.00;;;4.80;;
11986;SDS011;6053;51.382;6.768;2023-12-04T08:53:49;5.15;;;4.85;;
11986;SDS011;6053;51.382;6.768;2023-12-04T08:56:17;5.25;;;4.95;;
11986;SDS011;6053;51.382;6.768;2023-12-04T08:58:56;4.13;;;4.00;;
11986;SDS011;6053;51.382;6.768;2023-12-04T09:01:31;4.20;;;4.00;;
11986;SDS011;6053;51.382;6.768;2023-12-04T09:04:16;5.15;;;4.25;;
11986;SDS011;6053;51.382;6.768;2023-12-04T09:06:45;4.80;;;4.60;;
11986;SDS011;6053;51.382;6.768;2023-12-04T09:09:25;5.25;;;4.95;;
11986;SDS011;6053;51.382;6.768;2023-12-04T09:11:54;4.32;;;4.07;;
11986;SDS011;6053;51.382;6.768;2023-12-04T09:14:36;4.80;;;4.60;;
11986;SDS011;6053;51.382;6.768;2023-12-04T09:17:10;5.27;;;5.00;;
11986;SDS011;6053;51.382;6.768;2023-12-04T09:19:45;4.07;;;3.88;;
11986;SDS011;6053;51.382;6.768;2023-12-04T09:22:21;5.00;;;4.75;;
11986;SDS011;6053;51.382;6.768;2023-12-04T09:27:39;4.90;;;4.70;;
11986;SDS011;6053;51.382;6.768;2023-12-04T09:30:08;4.85;;;4.63;;
11986;SDS011;6053;51.382;6.768;2023-12-04T09:32:37;4.57;;;4.37;;
11986;SDS011;6053;51.382;6.768;2023-12-04T09:35:14;5.03;;;4.80;;
11986;SDS011;6053;51.382;6.768;2023-12-04T09:37:43;4.82;;;4.53;;
11986;SDS011;6053;51.382;6.768;2023-12-04T09:40:20;5.25;;;4.95;;
11986;SDS011;6053;51.382;6.768;2023-12-04T09:42:48;4.53;;;4.22;;
11986;SDS011;6053;51.382;6.768;2023-12-04T09:45:17;4.20;;;4.00;;
11986;SDS011;6053;51.382;6.768;2023-12-04T09:47:51;4.20;;;4.00;;
11986;SDS011;6053;51.382;6.768;2023-12-04T09:50:22;4.35;;;4.05;;
11986;SDS011;6053;51.382;6.768;2023-12-04T09:52:54;4.30;;;4.10;;
11986;SDS011;6053;51.382;6.768;2023-12-04T09:55:25;4.50;;;4.30;;
11986;SDS011;6053;51.382;6.768;2023-12-04T09:57:57;4.40;;;4.20;;
11986;SDS011;6053;51.382;6.768;2023-12-04T10:00:26;4.97;;;4.70;;
11986;SDS011;6053;51.382;6.768;2023-12-04T10:02:55;4.80;;;4.60;;
11986;SDS011;6053;51.382;6.768;2023-12-04T10:05:39;4.80;;;4.50;;
11986;SDS011;6053;51.382;6.768;2023-12-04T10:08:23;4.90;;;4.63;;
11986;SDS011;6053;51.382;6.768;2023-12-04T10:10:52;4.40;;;4.20;;
11986;SDS011;6053;51.382;6.768;2023-12-04T10:13:25;4.47;;;4.17;;
11986;SDS011;6053;51.382;6.768;2023-12-04T10:16:14;4.50;;;4.30;;
11986;SDS011;6053;51.382;6.768;2023-12-04T10:19:16;4.57;;;4.37;;
11986;SDS011;6053;51.382;6.768;2023-12-04T10:21:48;4.35;;;4.15;;
11986;SDS011;6053;51.382;6.768;2023-12-04T10:24:28;4.78;;;4.53;;
11986;SDS011;6053;51.382;6.768;2023-12-04T10:26:59;5.78;;;4.20;;
11986;SDS011;6053;51.382;6.768;2023-12-04T10:32:23;4.43;;;4.23;;
11986;SDS011;6053;51.382;6.768;2023-12-04T10:34:58;4.07;;;3.88;;
11986;SDS011;6053;51.382;6.768;2023-12-04T10:37:37;4.57;;;4.38;;
11986;SDS011;6053;51.382;6.768;2023-12-04T10:40:09;4.78;;;4.32;;
11986;SDS011;6053;51.382;6.768;2023-12-04T10:42:38;5.38;;;5.07;;
11986;SDS011;6053;51.382;6.768;2023-12-04T10:45:13;4.97;;;4.78;;
11986;SDS011;6053;51.382;6.768;2023-12-04T10:47:47;5.05;;;4.82;;
11986;SDS011;6053;51.382;6.768;2023-12-04T10:50:18;5.13;;;4.93;;
11986;SDS011;6053;51.382;6.768;2023-12-04T10:52:52;5.20;;;4.80;;
11986;SDS011;6053;51.382;6.768;2023-12-04T10:55:25;5.68;;;5.25;;
11986;SDS011;6053;51.382;6.768;2023-12-04T10:58:05;5.10;;;4.80;;
11986;SDS011;6053;51.382;6.768;2023-12-04T11:00:36;5.05;;;4.75;;
11986;SDS011;6053;51.382;6.768;2023-12-04T11:03:09;4.53;;;4.30;;
11986;SDS011;6053;51.382;6.768;2023-12-04T11:05:41;5.60;;;5.20;;
11986;SDS011;6053;51.382;6.768;2023-12-04T11:08:16;5.30;;;5.00;;
11986;SDS011;6053;51.382;6.768;2023-12-04T11:10:50;4.43;;;4.22;;
11986;SDS011;6053;51.382;6.768;2023-12-04T11:13:26;4.63;;;4.43;;
11986;SDS011;6053;51.382;6.768;2023-12-04T11:16:06;4.75;;;4.35;;
11986;SDS011;6053;51.382;6.768;2023-12-04T11:18:42;5.47;;;5.00;;
11986;SDS011;6053;51.382;6.768;2023-12-04T11:21:14;5.10;;;4.80;;
11986;SDS011;6053;51.382;6.768;2023-12-04T11:23:59;5.00;;;4.80;;
11986;SDS011;6053;51.382;6.768;2023-12-04T11:26:28;4.32;;;4.13;;
11986;SDS011;6053;51.382;6.768;2023-12-04T11:28:58;5.28;;;4.97;;
11986;SDS011;6053;51.382;6.768;2023-12-04T11:31:30;4.38;;;4.07;;
11986;SDS011;6053;51.382;6.768;2023-12-04T11:34:08;4.22;;;4.03;;
11986;SDS011;6053;51.382;6.768;2023-12-04T11:36:40;5.22;;;4.93;;
11986;SDS011;6053;51.382;6.768;2023-12-04T11:39:18;5.07;;;4.78;;
11986;SDS011;6053;51.382;6.768;2023-12-04T11:41:46;4.47;;;4.28;;
11986;SDS011;6053;51.382;6.768;2023-12-04T11:44:21;4.70;;;4.50;;
11986;SDS011;6053;51.382;6.768;2023-12-04T11:46:56;4.78;;;4.57;;
11986;SDS011;6053;51.382;6.768;2023-12-04T11:49:35;4.55;;;4.35;;
11986;SDS011;6053;51.382;6.768;2023-12-04T11:52:06;5.65;;;5.35;;
11986;SDS011;6053;51.382;6.768;2023-12-04T11:57:56;5.33;;;4.97;;
11986;SDS011;6053;51.382;6.768;2023-12-04T12:00:24;3.75;;;3.55;;
11986;SDS011;6053;51.382;6.768;2023-12-04T12:03:02;5.70;;;5.38;;
11986;SDS011;6053;51.382;6.768;2023-12-04T12:06:06;5.28;;;4.97;;
11986;SDS011;6053;51.382;6.768;2023-12-04T12:08:36;4.93;;;4.63;;
11986;SDS011;6053;51.382;6.768;2023-12-04T12:11:06;4.95;;;4.65;;
11986;SDS011;6053;51.382;6.768;2023-12-04T12:13:35;5.18;;;4.88;;
11986;SDS011;6053;51.382;6.768;2023-12-04T12:16:06;4.82;;;4.60;;
11986;SDS011;6053;51.382;6.768;2023-12-04T12:18:40;4.07;;;3.85;;
11986;SDS011;6053;51.382;6.768;2023-12-04T12:21:08;4.55;;;4.28;;
11986;SDS011;6053;51.382;6.768;2023-12-04T12:23:37;5.25;;;4.93;;
11986;SDS011;6053;51.382;6.768;2023-12-04T12:26:09;4.63;;;4.22;;
11986;SDS011;6053;51.382;6.768;2023-12-04T12:28:37;3.97;;;3.78;;
11986;SDS011;6053;51.382;6.768;2023-12-04T12:31:06;5.05;;;4.85;;
11986;SDS011;6053;51.382;6.768;2023-12-04T12:33:41;5.22;;;4.93;;
11986;SDS011;6053;51.382;6.768;2023-12-04T12:36:10;5.10;;;4.80;;
11986;SDS011;6053;51.382;6.768;2023-12-04T12:38:47;4.53;;;4.28;;
11986;SDS011;6053;51.382;6.768;2023-12-04T12:41:20;4.93;;;4.63;;
11986;SDS011;6053;51.382;6.768;2023-12-04T12:43:51;4.97;;;4.68;;
11986;SDS011;6053;51.382;6.768;2023-12-04T12:46:19;5.28;;;4.97;;
11986;SDS011;6053;51.382;6.768;2023-12-04T12:48:57;5.50;;;5.20;;
11986;SDS011;6053;51.382;6.768;2023-12-04T12:51:26;5.03;;;4.72;;
11986;SDS011;6053;51.382;6.768;2023-12-04T12:53:56;5.28;;;4.78;;
11986;SDS011;6053;51.382;6.768;2023-12-04T12:56:29;4.97;;;4.67;;
11986;SDS011;6053;51.382;6.768;2023-12-04T12:59:00;4.63;;;4.43;;
11986;SDS011;6053;51.382;6.768;2023-12-04T13:01:30;4.95;;;4.60;;
11986;SDS011;6053;51.382;6.768;2023-12-04T13:03:59;5.05;;;4.75;;
11986;SDS011;6053;51.382;6.768;2023-12-04T13:06:28;5.07;;;4.77;;
11986;SDS011;6053;51.382;6.768;2023-12-04T13:08:58;4.60;;;4.40;;
11986;SDS011;6053;51.382;6.768;2023-12-04T13:11:36;5.22;;;4.93;;
11986;SDS011;6053;51.382;6.768;2023-12-04T13:14:11;4.70;;;4.50;;
11986;SDS011;6053;51.382;6.768;2023-12-04T13:16:47;5.35;;;4.95;;
11986;SDS011;6053;51.382;6.768;2023-12-04T13:19:22;5.20;;;4.90;;
11986;SDS011;6053;51.382;6.768;2023-12-04T13:21:55;4.68;;;4.28;;
11986;SDS011;6053;51.382;6.768;2023-12-04T13:24:27;4.75;;;4.45;;
11986;SDS011;6053;51.382;6.768;2023-12-04T13:26:57;4.55;;;4.25;;
11986;SDS011;6053;51.382;6.768;2023-12-04T13:29:25;4.68;;;4.35;;
11986;SDS011;6053;51.382;6.768;2023-12-04T13:31:59;4.10;;;3.90;;
11986;SDS011;6053;51.382;6.768;2023-12-04T13:34:28;4.80;;;4.50;;
11986;SDS011;6053;51.382;6.768;2023-12-04T13:36:59;5.03;;;4.82;;
11986;SDS011;6053;51.382;6.768;2023-12-04T13:39:28;4.93;;;4.72;;
11986;SDS011;6053;51.382;6.768;2023-12-04T13:42:22;3.70;;;3.53;;
11986;SDS011;6053;51.382;6.768;2023-12-04T13:45:12;4.50;;;4.20;;
11986;SDS011;6053;51.382;6.768;2023-12-04T13:47:46;4.70;;;4.40;;
11986;SDS011;6053;51.382;6.768;2023-12-04T13:50:15;4.70;;;4.50;;
11986;SDS011;6053;51.382;6.768;2023-12-04T13:52:44;3.83;;;3.63;;
11986;SDS011;6053;51.382;6.768;2023-12-04T13:55:25;4.45;;;4.25;;
11986;SDS011;6053;51.382;6.768;2023-12-04T13:58:11;3.60;;;3.50;;
11986;SDS011;6053;51.382;6.768;2023-12-04T14:01:02;4.33;;;4.03;;
11986;SDS011;6053;51.382;6.768;2023-12-04T14:03:42;4.30;;;4.10;;
11986;SDS011;6053;51.382;6.768;2023-12-04T14:06:12;4.27;;;4.07;;
11986;SDS011;6053;51.382;6.768;2023-12-04T14:08:46;4.20;;;4.00;;
11986;SDS011;6053;51.382;6.768;2023-12-04T14:11:18;4.35;;;4.15;;
11986;SDS011;6053;51.382;6.768;2023-12-04T14:13:48;4.30;;;4.10;;
11986;SDS011;6053;51.382;6.768;2023-12-04T14:16:17;4.85;;;4.65;;
11986;SDS011;6053;51.382;6.768;2023-12-04T14:18:45;4.30;;;4.10;;
11986;SDS011;6053;51.382;6.768;2023-12-04T14:21:17;4.20;;;4.00;;
11986;SDS011;6053;51.382;6.768;2023-12-04T14:23:45;4.63;;;4.43;;
11986;SDS011;6053;51.382;6.768;2023-12-04T14:26:13;4.38;;;4.18;;
11986;SDS011;6053;51.382;6.768;2023-12-04T14:28:44;4.22;;;4.03;;
11986;SDS011;6053;51.382;6.768;2023-12-04T14:31:16;3.65;;;3.55;;
11986;SDS011;6053;51.382;6.768;2023-12-04T14:33:48;3.50;;;3.40;;
11986;SDS011;6053;51.382;6.768;2023-12-04T14:36:17;3.75;;;3.65;;
11986;SDS011;6053;51.382;6.768;2023-12-04T14:38:45;4.03;;;3.83;;
11986;SDS011;6053;51.382;6.768;2023-12-04T14:41:15;3.58;;;3.47;;
11986;SDS011;6053;51.382;6.768;2023-12-04T14:43:46;3.85;;;3.67;;
11986;SDS011;6053;51.382;6.768;2023-12-04T14:46:23;4.40;;;4.20;;
11986;SDS011;6053;51.382;6.768;2023-12-04T14:48:51;3.78;;;3.58;;
11986;SDS011;6053;51.382;6.768;2023-12-04T14:51:20;3.67;;;3.50;;
11986;SDS011;6053;51.382;6.768;2023-12-04T14:53:56;4.40;;;4.20;;
11986;SDS011;6053;51.382;6.768;2023-12-04T14:56:54;4.30;;;4.10;;
11986;SDS011;6053;51.382;6.768;2023-12-04T15:00:10;3.83;;;3.63;;
11986;SDS011;6053;51.382;6.768;2023-12-04T15:03:02;4.25;;;4.05;;
11986;SDS011;6053;51.382;6.768;2023-12-04T15:05:54;4.28;;;4.07;;
11986;SDS011;6053;51.382;6.768;2023-12-04T15:08:58;4.40;;;4.20;;
11986;SDS011;6053;51.382;6.768;2023-12-04T15:11:44;4.10;;;3.90;;
11986;SDS011;6053;51.382;6.768;2023-12-04T15:14:44;3.85;;;3.75;;
11986;SDS011;6053;51.382;6.768;2023-12-04T15:17:24;3.30;;;3.20;;
11986;SDS011;6053;51.382;6.768;2023-12-04T15:20:00;3.85;;;3.75;;
11986;SDS011;6053;51.382;6.768;2023-12-04T15:22:47;4.10;;;3.90;;
11986;SDS011;6053;51.382;6.768;2023-12-04T15:25:21;4.13;;;3.92;;
11986;SDS011;6053;51.382;6.768;2023-12-04T15:27:49;4.68;;;4.47;;
11986;SDS011;6053;51.382;6.768;2023-12-04T15:30:21;4.15;;;3.95;;
11986;SDS011;6053;51.382;6.768;2023-12-04T15:32:50;3.95;;;3.80;;
11986;SDS011;6053;51.382;6.768;2023-12-04T15:35:21;3.72;;;3.53;;
11986;SDS011;6053;51.382;6.768;2023-12-04T15:37:51;4.30;;;4.10;;
11986;SDS011;6053;51.382;6.768;2023-12-04T15:40:20;4.00;;;3.90;;
11986;SDS011;6053;51.382;6.768;2023-12-04T15:42:50;4.03;;;3.93;;
11986;SDS011;6053;51.382;6.768;2023-12-04T15:45:19;4.55;;;4.35;;